sensor_id;sensor_type;location;lat;lon;timestamp;pressure;altitude;pressure_sealevel;temperature;humidity
12987;BME280;58897;51.960;5.582;2023-02-21T00:02:17;101859.41;;;8.00;100.00
12987;BME280;58897;51.960;5.582;2023-02-21T00:05:02;101852.81;;;8.04;100.00
12987;BME280;58897;51.960;5.582;2023-02-21T00:07:48;101848.66;;;8.00;100.00
12987;BME280;58897;51.960;5.582;2023-02-21T00:10:33;101852.31;;;7.99;100.00
12987;BME280;58897;51.960;5.582;2023-02-21T00:13:18;101854.03;;;8.00;100.00
12987;BME280;58897;51.960;5.582;2023-02-21T00:16:03;101845.47;;;7.95;100.00
12987;BME280;58897;51.960;5.582;2023-02-21T00:18:48;101848.66;;;8.00;100.00
12987;BME280;58897;51.960;5.582;2023-02-21T00:21:33;101847.06;;;7.97;100.00
12987;BME280;58897;51.960;5.582;2023-02-21T00:24:18;101853.28;;;7.98;100.00
12987;BME280;58897;51.960;5.582;2023-02-21T00:27:03;101850.59;;;7.98;100.00
12987;BME280;58897;51.960;5.582;2023-02-21T00:29:49;101843.75;;;7.94;100.00
12987;BME280;58897;51.960;5.582;2023-02-21T00:32:35;101850.84;;;7.95;100.00
12987;BME280;58897;51.960;5.582;2023-02-21T00:35:21;101851.44;;;7.98;100.00
12987;BME280;58897;51.960;5.582;2023-02-21T00:38:05;101848.16;;;7.95;100.00
12987;BME280;58897;51.960;5.582;2023-02-21T00:40:52;101860.75;;;7.94;100.00
12987;BME280;58897;51.960;5.582;2023-02-21T00:43:37;101860.16;;;8.02;100.00
12987;BME280;58897;51.960;5.582;2023-02-21T00:46:22;101850.09;;;7.93;100.00
12987;BME280;58897;51.960;5.582;2023-02-21T00:49:08;101846.44;;;7.94;100.00
12987;BME280;58897;51.960;5.582;2023-02-21T00:51:53;101843.38;;;7.98;100.00
12987;BME280;58897;51.960;5.582;2023-02-21T00:54:39;101840.94;;;7.95;100.00
12987;BME280;58897;51.960;5.582;2023-02-21T00:57:24;101833.97;;;7.93;100.00
12987;BME280;58897;51.960;5.582;2023-02-21T01:00:16;101842.41;;;7.99;100.00
12987;BME280;58897;51.960;5.582;2023-02-21T01:03:02;101831.16;;;7.94;100.00
12987;BME280;58897;51.960;5.582;2023-02-21T01:05:47;101827.00;;;7.90;100.00
12987;BME280;58897;51.960;5.582;2023-02-21T01:08:32;101824.19;;;7.92;100.00
12987;BME280;58897;51.960;5.582;2023-02-21T01:11:19;101816.00;;;7.93;100.00
12987;BME280;58897;51.960;5.582;2023-02-21T01:14:05;101825.88;;;7.93;100.00
12987;BME280;58897;51.960;5.582;2023-02-21T01:16:53;101818.56;;;7.95;100.00
12987;BME280;58897;51.960;5.582;2023-02-21T01:19:40;101811.72;;;7.91;100.00
12987;BME280;58897;51.960;5.582;2023-02-21T01:22:26;101809.75;;;7.93;100.00
12987;BME280;58897;51.960;5.582;2023-02-21T01:25:12;101812.44;;;7.93;100.00
12987;BME280;58897;51.960;5.582;2023-02-21T01:27:57;101818.91;;;8.01;100.00
12987;BME280;58897;51.960;5.582;2023-02-21T01:30:43;101818.44;;;7.96;100.00
12987;BME280;58897;51.960;5.582;2023-02-21T01:33:28;101818.06;;;8.01;100.00
12987;BME280;58897;51.960;5.582;2023-02-21T01:36:13;101816.38;;;8.00;100.00
12987;BME280;58897;51.960;5.582;2023-02-21T01:38:58;101814.50;;;8.00;100.00
12987;BME280;58897;51.960;5.582;2023-02-21T01:41:43;101815.25;;;8.02;100.00
12987;BME280;58897;51.960;5.582;2023-02-21T01:44:37;101812.91;;;7.98;100.00
12987;BME280;58897;51.960;5.582;2023-02-21T01:47:23;101805.94;;;7.95;100.00
12987;BME280;58897;51.960;5.582;2023-02-21T01:50:24;101810.59;;;7.93;100.00
12987;BME280;58897;51.960;5.582;2023-02-21T01:53:20;101805.34;;;7.92;100.00
12987;BME280;58897;51.960;5.582;2023-02-21T01:56:07;101804.63;;;7.90;100.00
12987;BME280;58897;51.960;5.582;2023-02-21T01:58:56;101792.88;;;7.91;100.00
12987;BME280;58897;51.960;5.582;2023-02-21T02:01:50;101787.25;;;7.94;100.00
12987;BME280;58897;51.960;5.582;2023-02-21T02:04:36;101792.63;;;7.94;100.00
12987;BME280;58897;51.960;5.582;2023-02-21T02:07:22;101788.13;;;7.94;100.00
12987;BME280;58897;51.960;5.582;2023-02-21T02:10:08;101791.28;;;7.99;100.00
12987;BME280;58897;51.960;5.582;2023-02-21T02:15:53;101790.31;;;7.89;100.00
12987;BME280;58897;51.960;5.582;2023-02-21T02:18:31;101794.94;;;7.98;100.00
12987;BME280;58897;51.960;5.582;2023-02-21T02:24:31;101792.25;;;7.98;100.00
12987;BME280;58897;51.960;5.582;2023-02-21T02:35:21;101792.78;;;7.92;100.00
12987;BME280;58897;51.960;5.582;2023-02-21T02:37:55;101793.34;;;7.96;100.00
12987;BME280;58897;51.960;5.582;2023-02-21T02:45:58;101802.91;;;7.89;100.00
12987;BME280;58897;51.960;5.582;2023-02-21T02:48:33;101789.84;;;7.84;100.00
12987;BME280;58897;51.960;5.582;2023-02-21T02:51:05;101789.09;;;7.93;100.00
12987;BME280;58897;51.960;5.582;2023-02-21T02:53:32;101785.28;;;7.85;100.00
12987;BME280;58897;51.960;5.582;2023-02-21T02:56:04;101794.84;;;7.89;100.00
12987;BME280;58897;51.960;5.582;2023-02-21T02:58:34;101782.59;;;7.85;100.00
12987;BME280;58897;51.960;5.582;2023-02-21T03:01:10;101788.34;;;7.80;100.00
12987;BME280;58897;51.960;5.582;2023-02-21T03:12:44;101770.38;;;7.81;100.00
12987;BME280;58897;51.960;5.582;2023-02-21T03:15:21;101777.13;;;7.86;100.00
12987;BME280;58897;51.960;5.582;2023-02-21T03:17:56;101776.63;;;7.81;100.00
12987;BME280;58897;51.960;5.582;2023-02-21T03:20:25;101776.50;;;7.83;100.00
12987;BME280;58897;51.960;5.582;2023-02-21T03:22:53;101772.84;;;7.84;100.00
12987;BME280;58897;51.960;5.582;2023-02-21T03:25:22;101780.78;;;7.85;100.00
12987;BME280;58897;51.960;5.582;2023-02-21T03:27:50;101774.41;;;7.86;100.00
12987;BME280;58897;51.960;5.582;2023-02-21T03:30:18;101782.50;;;7.86;100.00
12987;BME280;58897;51.960;5.582;2023-02-21T03:32:48;101777.09;;;7.75;100.00
12987;BME280;58897;51.960;5.582;2023-02-21T03:35:18;101777.25;;;7.74;100.00
12987;BME280;58897;51.960;5.582;2023-02-21T03:37:47;101780.91;;;7.84;100.00
12987;BME280;58897;51.960;5.582;2023-02-21T03:40:16;101779.19;;;7.72;100.00
12987;BME280;58897;51.960;5.582;2023-02-21T03:42:43;101786.50;;;7.70;100.00
12987;BME280;58897;51.960;5.582;2023-02-21T03:45:10;101791.03;;;7.69;100.00
12987;BME280;58897;51.960;5.582;2023-02-21T03:47:36;101788.88;;;7.74;100.00
12987;BME280;58897;51.960;5.582;2023-02-21T03:50:03;101794.25;;;7.74;100.00
12987;BME280;58897;51.960;5.582;2023-02-21T03:52:30;101784.94;;;7.78;100.00
12987;BME280;58897;51.960;5.582;2023-02-21T03:54:56;101785.31;;;7.74;100.00
12987;BME280;58897;51.960;5.582;2023-02-21T03:57:23;101778.59;;;7.79;100.00
12987;BME280;58897;51.960;5.582;2023-02-21T03:59:50;101775.66;;;7.71;100.00
12987;BME280;58897;51.960;5.582;2023-02-21T04:02:17;101774.66;;;7.72;100.00
12987;BME280;58897;51.960;5.582;2023-02-21T04:04:45;101781.75;;;7.62;100.00
12987;BME280;58897;51.960;5.582;2023-02-21T04:07:15;101787.38;;;7.70;100.00
12987;BME280;58897;51.960;5.582;2023-02-21T04:09:42;101792.28;;;7.65;100.00
12987;BME280;58897;51.960;5.582;2023-02-21T04:12:09;101779.69;;;7.66;100.00
12987;BME280;58897;51.960;5.582;2023-02-21T04:14:36;101770.88;;;7.64;100.00
12987;BME280;58897;51.960;5.582;2023-02-21T04:17:03;101777.09;;;7.64;100.00
12987;BME280;58897;51.960;5.582;2023-02-21T04:19:30;101784.06;;;7.67;100.00
12987;BME280;58897;51.960;5.582;2023-02-21T04:21:56;101772.34;;;7.68;100.00
12987;BME280;58897;51.960;5.582;2023-02-21T04:24:23;101776.75;;;7.69;100.00
12987;BME280;58897;51.960;5.582;2023-02-21T04:26:49;101772.97;;;7.71;100.00
12987;BME280;58897;51.960;5.582;2023-02-21T04:29:16;101779.78;;;7.75;100.00
12987;BME280;58897;51.960;5.582;2023-02-21T04:31:43;101779.06;;;7.73;100.00
12987;BME280;58897;51.960;5.582;2023-02-21T04:34:09;101770.38;;;7.70;100.00
12987;BME280;58897;51.960;5.582;2023-02-21T04:36:38;101774.56;;;7.74;100.00
12987;BME280;58897;51.960;5.582;2023-02-21T04:39:05;101762.78;;;7.75;100.00
12987;BME280;58897;51.960;5.582;2023-02-21T04:41:32;101761.69;;;7.77;100.00
12987;BME280;58897;51.960;5.582;2023-02-21T04:43:59;101763.31;;;7.69;100.00
12987;BME280;58897;51.960;5.582;2023-02-21T04:46:26;101762.56;;;7.67;100.00
12987;BME280;58897;51.960;5.582;2023-02-21T04:48:52;101760.00;;;7.65;100.00
12987;BME280;58897;51.960;5.582;2023-02-21T04:51:21;101755.72;;;7.63;100.00
12987;BME280;58897;51.960;5.582;2023-02-21T04:53:48;101759.38;;;7.62;100.00
12987;BME280;58897;51.960;5.582;2023-02-21T04:56:17;101756.34;;;7.55;100.00
12987;BME280;58897;51.960;5.582;2023-02-21T04:58:44;101752.66;;;7.56;100.00
12987;BME280;58897;51.960;5.582;2023-02-21T05:01:12;101747.03;;;7.59;100.00
12987;BME280;58897;51.960;5.582;2023-02-21T05:03:39;101751.06;;;7.65;100.00
12987;BME280;58897;51.960;5.582;2023-02-21T05:06:06;101747.16;;;7.69;100.00
12987;BME280;58897;51.960;5.582;2023-02-21T05:08:34;101744.22;;;7.72;100.00
12987;BME280;58897;51.960;5.582;2023-02-21T05:11:01;101744.47;;;7.69;100.00
12987;BME280;58897;51.960;5.582;2023-02-21T05:13:28;101744.22;;;7.72;100.00
12987;BME280;58897;51.960;5.582;2023-02-21T05:15:54;101749.97;;;7.67;100.00
12987;BME280;58897;51.960;5.582;2023-02-21T05:18:21;101745.31;;;7.69;100.00
12987;BME280;58897;51.960;5.582;2023-02-21T05:20:48;101750.97;;;7.55;100.00
12987;BME280;58897;51.960;5.582;2023-02-21T05:23:17;101758.41;;;7.63;100.00
12987;BME280;58897;51.960;5.582;2023-02-21T05:25:47;101760.22;;;7.62;100.00
12987;BME280;58897;51.960;5.582;2023-02-21T05:28:13;101763.66;;;7.64;100.00
12987;BME280;58897;51.960;5.582;2023-02-21T05:30:40;101766.00;;;7.58;100.00
12987;BME280;58897;51.960;5.582;2023-02-21T05:33:07;101762.81;;;7.64;100.00
12987;BME280;58897;51.960;5.582;2023-02-21T05:35:33;101771.13;;;7.61;100.00
12987;BME280;58897;51.960;5.582;2023-02-21T05:38:00;101772.09;;;7.60;100.00
12987;BME280;58897;51.960;5.582;2023-02-21T05:40:26;101766.09;;;7.56;100.00
12987;BME280;58897;51.960;5.582;2023-02-21T05:42:53;101756.69;;;7.62;100.00
12987;BME280;58897;51.960;5.582;2023-02-21T05:45:19;101754.38;;;7.57;100.00
12987;BME280;58897;51.960;5.582;2023-02-21T05:47:46;101767.81;;;7.57;100.00
12987;BME280;58897;51.960;5.582;2023-02-21T05:50:12;101770.63;;;7.56;100.00
12987;BME280;58897;51.960;5.582;2023-02-21T05:52:39;101775.25;;;7.54;100.00
12987;BME280;58897;51.960;5.582;2023-02-21T05:55:05;101775.75;;;7.59;100.00
12987;BME280;58897;51.960;5.582;2023-02-21T05:57:37;101778.19;;;7.62;100.00
12987;BME280;58897;51.960;5.582;2023-02-21T06:00:04;101776.38;;;7.62;100.00
12987;BME280;58897;51.960;5.582;2023-02-21T06:02:31;101775.91;;;7.68;100.00
12987;BME280;58897;51.960;5.582;2023-02-21T06:04:57;101782.75;;;7.61;100.00
12987;BME280;58897;51.960;5.582;2023-02-21T06:07:24;101774.44;;;7.53;100.00
12987;BME280;58897;51.960;5.582;2023-02-21T06:09:51;101778.56;;;7.57;100.00
12987;BME280;58897;51.960;5.582;2023-02-21T06:12:17;101777.13;;;7.53;100.00
12987;BME280;58897;51.960;5.582;2023-02-21T06:14:44;101776.59;;;7.59;100.00
12987;BME280;58897;51.960;5.582;2023-02-21T06:17:10;101775.66;;;7.60;100.00
12987;BME280;58897;51.960;5.582;2023-02-21T06:19:36;101778.44;;;7.59;100.00
12987;BME280;58897;51.960;5.582;2023-02-21T06:22:03;101782.59;;;7.63;100.00
12987;BME280;58897;51.960;5.582;2023-02-21T06:24:29;101776.97;;;7.55;100.00
12987;BME280;58897;51.960;5.582;2023-02-21T06:26:56;101776.03;;;7.56;100.00
12987;BME280;58897;51.960;5.582;2023-02-21T06:29:22;101778.72;;;7.56;100.00
12987;BME280;58897;51.960;5.582;2023-02-21T06:31:49;101788.22;;;7.60;100.00
12987;BME280;58897;51.960;5.582;2023-02-21T06:34:15;101783.81;;;7.59;100.00
12987;BME280;58897;51.960;5.582;2023-02-21T06:36:42;101791.53;;;7.63;100.00
12987;BME280;58897;51.960;5.582;2023-02-21T06:39:09;101788.38;;;7.58;100.00
12987;BME280;58897;51.960;5.582;2023-02-21T06:41:36;101786.78;;;7.56;100.00
12987;BME280;58897;51.960;5.582;2023-02-21T06:44:02;101783.09;;;7.57;100.00
12987;BME280;58897;51.960;5.582;2023-02-21T06:46:29;101785.78;;;7.57;100.00
12987;BME280;58897;51.960;5.582;2023-02-21T06:48:56;101796.19;;;7.61;100.00
12987;BME280;58897;51.960;5.582;2023-02-21T06:51:23;101792.63;;;7.61;100.00
12987;BME280;58897;51.960;5.582;2023-02-21T06:53:55;101790.81;;;7.61;100.00
12987;BME280;58897;51.960;5.582;2023-02-21T06:56:22;101788.69;;;7.54;100.00
12987;BME280;58897;51.960;5.582;2023-02-21T06:58:49;101779.81;;;7.53;100.00
12987;BME280;58897;51.960;5.582;2023-02-21T07:01:18;101778.09;;;7.52;100.00
12987;BME280;58897;51.960;5.582;2023-02-21T07:03:45;101779.03;;;7.51;100.00
12987;BME280;58897;51.960;5.582;2023-02-21T07:06:13;101783.81;;;7.59;100.00
12987;BME280;58897;51.960;5.582;2023-02-21T07:08:39;101789.19;;;7.59;100.00
12987;BME280;58897;51.960;5.582;2023-02-21T07:11:06;101795.44;;;7.59;100.00
12987;BME280;58897;51.960;5.582;2023-02-21T07:13:32;101786.63;;;7.57;100.00
12987;BME280;58897;51.960;5.582;2023-02-21T07:16:01;101788.00;;;7.63;100.00
12987;BME280;58897;51.960;5.582;2023-02-21T07:18:28;101775.16;;;7.66;100.00
12987;BME280;58897;51.960;5.582;2023-02-21T07:20:54;101785.31;;;7.63;100.00
12987;BME280;58897;51.960;5.582;2023-02-21T07:23:21;101791.78;;;7.60;100.00
12987;BME280;58897;51.960;5.582;2023-02-21T07:25:47;101789.31;;;7.57;100.00
12987;BME280;58897;51.960;5.582;2023-02-21T07:28:14;101793.50;;;7.61;100.00
12987;BME280;58897;51.960;5.582;2023-02-21T07:30:40;101794.00;;;7.66;100.00
12987;BME280;58897;51.960;5.582;2023-02-21T07:33:07;101789.59;;;7.65;100.00
12987;BME280;58897;51.960;5.582;2023-02-21T07:35:34;101793.00;;;7.67;100.00
12987;BME280;58897;51.960;5.582;2023-02-21T07:38:00;101799.97;;;7.70;100.00
12987;BME280;58897;51.960;5.582;2023-02-21T07:40:27;101798.63;;;7.64;100.00
12987;BME280;58897;51.960;5.582;2023-02-21T07:42:53;101802.06;;;7.66;100.00
12987;BME280;58897;51.960;5.582;2023-02-21T07:45:20;101810.13;;;7.66;100.00
12987;BME280;58897;51.960;5.582;2023-02-21T07:47:47;101804.00;;;7.75;100.00
12987;BME280;58897;51.960;5.582;2023-02-21T07:50:16;101813.91;;;7.75;100.00
12987;BME280;58897;51.960;5.582;2023-02-21T07:52:44;101803.03;;;7.65;100.00
12987;BME280;58897;51.960;5.582;2023-02-21T07:55:10;101804.00;;;7.64;100.00
12987;BME280;58897;51.960;5.582;2023-02-21T07:57:38;101805.00;;;7.63;100.00
12987;BME280;58897;51.960;5.582;2023-02-21T08:00:05;101802.31;;;7.63;100.00
12987;BME280;58897;51.960;5.582;2023-02-21T08:02:32;101799.09;;;7.69;100.00
12987;BME280;58897;51.960;5.582;2023-02-21T08:04:58;101805.22;;;7.60;100.00
12987;BME280;58897;51.960;5.582;2023-02-21T08:07:25;101814.16;;;7.61;100.00
12987;BME280;58897;51.960;5.582;2023-02-21T08:09:51;101810.22;;;7.65;100.00
12987;BME280;58897;51.960;5.582;2023-02-21T08:12:18;101817.69;;;7.72;100.00
12987;BME280;58897;51.960;5.582;2023-02-21T08:14:44;101807.78;;;7.73;100.00
12987;BME280;58897;51.960;5.582;2023-02-21T08:17:11;101801.56;;;7.72;100.00
12987;BME280;58897;51.960;5.582;2023-02-21T08:19:39;101801.19;;;7.66;100.00
12987;BME280;58897;51.960;5.582;2023-02-21T08:22:05;101801.31;;;7.64;100.00
12987;BME280;58897;51.960;5.582;2023-02-21T08:24:32;101801.94;;;7.68;100.00
12987;BME280;58897;51.960;5.582;2023-02-21T08:26:58;101801.06;;;7.78;100.00
12987;BME280;58897;51.960;5.582;2023-02-21T08:29:25;101799.84;;;7.82;100.00
12987;BME280;58897;51.960;5.582;2023-02-21T08:31:51;101795.09;;;7.86;100.00
12987;BME280;58897;51.960;5.582;2023-02-21T08:34:18;101793.25;;;7.75;100.00
12987;BME280;58897;51.960;5.582;2023-02-21T08:36:44;101793.72;;;7.80;100.00
12987;BME280;58897;51.960;5.582;2023-02-21T08:39:11;101794.13;;;7.87;100.00
12987;BME280;58897;51.960;5.582;2023-02-21T08:41:43;101797.78;;;7.86;100.00
12987;BME280;58897;51.960;5.582;2023-02-21T08:44:12;101792.88;;;7.91;100.00
12987;BME280;58897;51.960;5.582;2023-02-21T08:46:41;101787.50;;;7.91;100.00
12987;BME280;58897;51.960;5.582;2023-02-21T08:49:09;101787.13;;;7.95;100.00
12987;BME280;58897;51.960;5.582;2023-02-21T08:51:36;101789.56;;;7.98;100.00
12987;BME280;58897;51.960;5.582;2023-02-21T08:54:02;101795.47;;;7.92;100.00
12987;BME280;58897;51.960;5.582;2023-02-21T08:56:29;101790.44;;;7.88;100.00
12987;BME280;58897;51.960;5.582;2023-02-21T08:58:56;101792.25;;;7.87;100.00
12987;BME280;58897;51.960;5.582;2023-02-21T09:01:23;101793.25;;;7.86;100.00
12987;BME280;58897;51.960;5.582;2023-02-21T09:03:50;101787.50;;;7.91;100.00
12987;BME280;58897;51.960;5.582;2023-02-21T09:06:17;101787.25;;;7.83;100.00
12987;BME280;58897;51.960;5.582;2023-02-21T09:08:44;101790.56;;;7.86;100.00
12987;BME280;58897;51.960;5.582;2023-02-21T09:11:10;101794.13;;;7.87;100.00
12987;BME280;58897;51.960;5.582;2023-02-21T09:13:37;101788.34;;;7.91;100.00
12987;BME280;58897;51.960;5.582;2023-02-21T09:16:03;101779.81;;;7.86;100.00
12987;BME280;58897;51.960;5.582;2023-02-21T09:18:30;101781.72;;;7.95;100.00
12987;BME280;58897;51.960;5.582;2023-02-21T09:20:57;101784.56;;;7.94;100.00
12987;BME280;58897;51.960;5.582;2023-02-21T09:23:26;101788.34;;;7.91;100.00
12987;BME280;58897;51.960;5.582;2023-02-21T09:25:53;101773.41;;;7.98;100.00
12987;BME280;58897;51.960;5.582;2023-02-21T09:28:21;101775.25;;;7.98;100.00
12987;BME280;58897;51.960;5.582;2023-02-21T09:30:48;101774.41;;;7.97;100.00
12987;BME280;58897;51.960;5.582;2023-02-21T09:33:15;101762.56;;;8.00;100.00
12987;BME280;58897;51.960;5.582;2023-02-21T09:35:41;101767.56;;;8.04;100.00
12987;BME280;58897;51.960;5.582;2023-02-21T09:38:08;101772.69;;;7.96;100.00
12987;BME280;58897;51.960;5.582;2023-02-21T09:43:07;101759.25;;;7.96;100.00
12987;BME280;58897;51.960;5.582;2023-02-21T09:45:37;101751.91;;;7.98;100.00
12987;BME280;58897;51.960;5.582;2023-02-21T09:48:12;101755.31;;;8.00;100.00
12987;BME280;58897;51.960;5.582;2023-02-21T09:50:48;101757.16;;;8.00;100.00
12987;BME280;58897;51.960;5.582;2023-02-21T09:53:19;101754.34;;;8.01;100.00
12987;BME280;58897;51.960;5.582;2023-02-21T09:55:49;101754.47;;;8.00;100.00
12987;BME280;58897;51.960;5.582;2023-02-21T09:58:18;101753.22;;;8.15;100.00
12987;BME280;58897;51.960;5.582;2023-02-21T10:00:45;101752.50;;;8.13;100.00
12987;BME280;58897;51.960;5.582;2023-02-21T10:06:09;101754.91;;;8.16;100.00
12987;BME280;58897;51.960;5.582;2023-02-21T10:08:52;101744.16;;;8.16;100.00
12987;BME280;58897;51.960;5.582;2023-02-21T10:11:28;101751.97;;;8.19;100.00
12987;BME280;58897;51.960;5.582;2023-02-21T10:14:20;101754.56;;;8.09;100.00
12987;BME280;58897;51.960;5.582;2023-02-21T10:20:00;101755.06;;;8.15;100.00
12987;BME280;58897;51.960;5.582;2023-02-21T10:22:34;101759.97;;;8.09;100.00
12987;BME280;58897;51.960;5.582;2023-02-21T10:25:19;101750.91;;;8.11;100.00
12987;BME280;58897;51.960;5.582;2023-02-21T10:27:46;101754.81;;;8.18;100.00
12987;BME280;58897;51.960;5.582;2023-02-21T10:30:36;101754.34;;;8.01;100.00
12987;BME280;58897;51.960;5.582;2023-02-21T10:33:06;101759.72;;;8.13;100.00
12987;BME280;58897;51.960;5.582;2023-02-21T10:35:37;101759.47;;;8.16;100.00
12987;BME280;58897;51.960;5.582;2023-02-21T10:38:11;101756.50;;;8.19;100.00
12987;BME280;58897;51.960;5.582;2023-02-21T10:40:58;101754.41;;;8.22;100.00
12987;BME280;58897;51.960;5.582;2023-02-21T10:43:33;101749.41;;;8.18;100.00
12987;BME280;58897;51.960;5.582;2023-02-21T10:46:09;101760.19;;;8.29;100.00
12987;BME280;58897;51.960;5.582;2023-02-21T10:48:40;101758.69;;;8.25;100.00
12987;BME280;58897;51.960;5.582;2023-02-21T10:51:10;101757.50;;;8.29;100.00
12987;BME280;58897;51.960;5.582;2023-02-21T10:53:39;101751.72;;;8.22;100.00
12987;BME280;58897;51.960;5.582;2023-02-21T10:56:09;101751.38;;;8.27;100.00
12987;BME280;58897;51.960;5.582;2023-02-21T11:03:54;101754.44;;;8.33;100.00
12987;BME280;58897;51.960;5.582;2023-02-21T11:06:38;101758.94;;;8.22;100.00
12987;BME280;58897;51.960;5.582;2023-02-21T11:09:41;101749.75;;;8.35;100.00
12987;BME280;58897;51.960;5.582;2023-02-21T11:12:25;101745.75;;;8.30;100.00
12987;BME280;58897;51.960;5.582;2023-02-21T11:17:29;101742.66;;;8.34;100.00
12987;BME280;58897;51.960;5.582;2023-02-21T11:22:37;101748.19;;;8.33;100.00
12987;BME280;58897;51.960;5.582;2023-02-21T11:25:14;101749.53;;;8.16;100.00
12987;BME280;58897;51.960;5.582;2023-02-21T11:27:44;101744.06;;;8.29;100.00
12987;BME280;58897;51.960;5.582;2023-02-21T11:30:19;101747.94;;;8.36;100.00
12987;BME280;58897;51.960;5.582;2023-02-21T11:32:53;101746.97;;;8.37;100.00
12987;BME280;58897;51.960;5.582;2023-02-21T11:35:32;101740.09;;;8.33;100.00
12987;BME280;58897;51.960;5.582;2023-02-21T11:38:06;101737.78;;;8.39;100.00
12987;BME280;58897;51.960;5.582;2023-02-21T11:40:43;101739.59;;;8.39;100.00
12987;BME280;58897;51.960;5.582;2023-02-21T11:43:12;101736.53;;;8.43;100.00
12987;BME280;58897;51.960;5.582;2023-02-21T11:48:54;101732.88;;;8.44;100.00
12987;BME280;58897;51.960;5.582;2023-02-21T11:54:08;101725.38;;;8.48;100.00
12987;BME280;58897;51.960;5.582;2023-02-21T12:13:30;101728.91;;;8.48;100.00
12987;BME280;58897;51.960;5.582;2023-02-21T12:16:21;101721.09;;;8.45;100.00
12987;BME280;58897;51.960;5.582;2023-02-21T12:24:58;101715.38;;;8.39;100.00
12987;BME280;58897;51.960;5.582;2023-02-21T12:44:12;101692.25;;;8.36;100.00
12987;BME280;58897;51.960;5.582;2023-02-21T12:49:41;101690.78;;;8.32;100.00
12987;BME280;58897;51.960;5.582;2023-02-21T12:52:20;101695.41;;;8.41;100.00
12987;BME280;58897;51.960;5.582;2023-02-21T12:54:54;101690.75;;;8.43;100.00
12987;BME280;58897;51.960;5.582;2023-02-21T12:57:30;101694.88;;;8.47;100.00
12987;BME280;58897;51.960;5.582;2023-02-21T13:00:04;101700.75;;;8.52;100.00
12987;BME280;58897;51.960;5.582;2023-02-21T13:05:38;101688.88;;;8.55;100.00
12987;BME280;58897;51.960;5.582;2023-02-21T13:13:23;101683.53;;;8.44;100.00
12987;BME280;58897;51.960;5.582;2023-02-21T13:15:51;101671.59;;;8.37;100.00
12987;BME280;58897;51.960;5.582;2023-02-21T13:18:29;101672.56;;;8.36;100.00
12987;BME280;58897;51.960;5.582;2023-02-21T13:29:25;101657.00;;;8.39;100.00
12987;BME280;58897;51.960;5.582;2023-02-21T13:32:02;101656.16;;;8.59;100.00
12987;BME280;58897;51.960;5.582;2023-02-21T13:34:40;101655.34;;;8.48;100.00
12987;BME280;58897;51.960;5.582;2023-02-21T13:37:17;101651.88;;;8.57;100.00
12987;BME280;58897;51.960;5.582;2023-02-21T13:39:49;101648.53;;;8.64;100.00
12987;BME280;58897;51.960;5.582;2023-02-21T13:42:22;101645.25;;;8.61;100.00
12987;BME280;58897;51.960;5.582;2023-02-21T13:50:43;101643.09;;;8.55;100.00
12987;BME280;58897;51.960;5.582;2023-02-21T13:54:02;101643.81;;;8.57;100.00
12987;BME280;58897;51.960;5.582;2023-02-21T13:56:40;101642.03;;;8.46;100.00
12987;BME280;58897;51.960;5.582;2023-02-21T14:01:49;101639.53;;;8.23;100.00
12987;BME280;58897;51.960;5.582;2023-02-21T14:07:10;101645.78;;;8.23;100.00
12987;BME280;58897;51.960;5.582;2023-02-21T14:09:39;101644.31;;;8.19;100.00
12987;BME280;58897;51.960;5.582;2023-02-21T14:12:07;101645.31;;;8.18;100.00
12987;BME280;58897;51.960;5.582;2023-02-21T14:14:36;101635.13;;;8.22;100.00
12987;BME280;58897;51.960;5.582;2023-02-21T14:17:07;101649.69;;;8.19;100.00
12987;BME280;58897;51.960;5.582;2023-02-21T14:24:38;101639.28;;;8.26;100.00
12987;BME280;58897;51.960;5.582;2023-02-21T14:40:00;101643.59;;;8.28;100.00
12987;BME280;58897;51.960;5.582;2023-02-21T14:42:56;101633.53;;;8.30;100.00
12987;BME280;58897;51.960;5.582;2023-02-21T14:45:43;101625.38;;;8.21;100.00
12987;BME280;58897;51.960;5.582;2023-02-21T14:59:31;101614.44;;;8.22;100.00
12987;BME280;58897;51.960;5.582;2023-02-21T15:04:45;101613.13;;;8.28;100.00
12987;BME280;58897;51.960;5.582;2023-02-21T15:12:57;101611.75;;;8.22;100.00
12987;BME280;58897;51.960;5.582;2023-02-21T15:15:30;101602.97;;;8.20;100.00
12987;BME280;58897;51.960;5.582;2023-02-21T15:20:27;101607.00;;;8.26;100.00
12987;BME280;58897;51.960;5.582;2023-02-21T15:23:14;101608.16;;;8.12;100.00
12987;BME280;58897;51.960;5.582;2023-02-21T15:25:42;101603.63;;;8.13;100.00
12987;BME280;58897;51.960;5.582;2023-02-21T15:28:30;101602.28;;;8.07;100.00
12987;BME280;58897;51.960;5.582;2023-02-21T15:31:04;101604.59;;;8.12;100.00
12987;BME280;58897;51.960;5.582;2023-02-21T15:33:33;101602.28;;;8.07;100.00
12987;BME280;58897;51.960;5.582;2023-02-21T15:36:04;101598.44;;;8.21;100.00
12987;BME280;58897;51.960;5.582;2023-02-21T15:38:50;101600.09;;;8.01;100.00
12987;BME280;58897;51.960;5.582;2023-02-21T15:41:31;101598.09;;;8.14;100.00
12987;BME280;58897;51.960;5.582;2023-02-21T15:44:17;101596.19;;;8.05;100.00
12987;BME280;58897;51.960;5.582;2023-02-21T15:46:49;101599.66;;;8.17;100.00
12987;BME280;58897;51.960;5.582;2023-02-21T15:50:03;101595.44;;;8.03;100.00
12987;BME280;58897;51.960;5.582;2023-02-21T15:52:33;101585.66;;;8.13;100.00
12987;BME280;58897;51.960;5.582;2023-02-21T15:57:56;101595.25;;;8.27;100.00
12987;BME280;58897;51.960;5.582;2023-02-21T16:00:34;101592.44;;;8.28;100.00
12987;BME280;58897;51.960;5.582;2023-02-21T16:03:27;101592.56;;;8.27;100.00
12987;BME280;58897;51.960;5.582;2023-02-21T16:06:17;101591.50;;;8.18;100.00
12987;BME280;58897;51.960;5.582;2023-02-21T16:09:17;101590.22;;;8.22;100.00